Time;durP1;ratioP1;P1;durP2;ratioP2;P2;SDS_P1;SDS_P2;PMS_P1;PMS_P2;Temp;Humidity;BMP_temperature;BMP_pressure;BME280_temperature;BME280_humidity;BME280_pressure;Samples;Min_cycle;Max_cycle;Signal;HPM_P1;HPM_P2
2023/05/26 00:00:04;;;;;;;34.78;5.25;;;12.70;98.20;;;;;;5051009;28;20028;-73
2023/05/26 00:02:30;;;;;;;29.02;4.82;;;12.60;98.30;;;;;;5050745;28;20030;-75
2023/05/26 00:05:01;;;;;;;25.00;4.85;;;12.70;98.20;;;;;;5050637;28;20039;-74
2023/05/26 00:07:27;;;;;;;31.23;4.80;;;12.70;98.20;;;;;;5050468;28;20036;-74
2023/05/26 00:09:52;;;;;;;33.05;5.40;;;12.70;98.10;;;;;;5050454;28;20071;-74
2023/05/26 00:12:19;;;;;;;26.00;4.18;;;12.50;98.30;;;;;;5050144;28;20151;-71
2023/05/26 00:14:46;;;;;;;40.83;4.93;;;12.50;98.40;;;;;;5049807;28;20413;-75
2023/05/26 00:17:12;;;;;;;45.55;6.53;;;12.50;98.20;;;;;;5050854;28;20040;-74
2023/05/26 00:19:39;;;;;;;21.25;4.75;;;12.40;98.30;;;;;;5050623;28;20717;-74
2023/05/26 00:22:05;;;;;;;31.50;4.70;;;12.40;98.50;;;;;;5050465;28;20041;-74
2023/05/26 00:24:30;;;;;;;24.33;4.47;;;12.50;98.40;;;;;;5050491;28;20669;-75
2023/05/26 00:26:56;;;;;;;30.73;4.55;;;12.50;98.30;;;;;;5050447;28;20373;-75
2023/05/26 00:29:22;;;;;;;26.27;5.10;;;12.60;98.10;;;;;;5050014;28;20090;-73
2023/05/26 00:31:47;;;;;;;33.30;5.63;;;12.50;98.20;;;;;;5050087;28;20478;-73
2023/05/26 00:34:13;;;;;;;35.80;5.95;;;12.60;98.20;;;;;;5050220;28;20116;-74
2023/05/26 00:36:38;;;;;;;27.02;4.35;;;12.40;98.30;;;;;;5050366;28;20112;-75
2023/05/26 00:39:04;;;;;;;30.30;5.43;;;12.40;98.40;;;;;;5049537;28;20120;-74
2023/05/26 00:41:30;;;;;;;32.50;5.47;;;12.40;98.50;;;;;;5049900;28;20072;-74
2023/05/26 00:43:56;;;;;;;26.88;5.80;;;12.40;98.50;;;;;;5048846;28;20037;-74
2023/05/26 00:46:21;;;;;;;36.92;5.82;;;12.30;98.70;;;;;;5050249;28;20036;-73
2023/05/26 00:48:47;;;;;;;29.02;4.57;;;12.20;98.80;;;;;;5049996;28;20123;-73
2023/05/26 00:51:13;;;;;;;31.80;5.53;;;12.30;98.60;;;;;;5050376;28;20100;-75
2023/05/26 00:53:42;;;;;;;30.42;5.53;;;12.20;98.60;;;;;;5049968;28;20368;-74
2023/05/26 00:56:10;;;;;;;35.63;7.05;;;12.10;98.90;;;;;;5049871;28;20094;-73
2023/05/26 00:58:37;;;;;;;29.45;5.13;;;12.00;99.00;;;;;;5050144;28;20029;-74
2023/05/26 01:01:02;;;;;;;35.33;5.22;;;12.10;98.90;;;;;;5050052;28;20269;-74
2023/05/26 01:03:28;;;;;;;35.13;5.13;;;12.20;98.80;;;;;;5049803;28;20021;-74
2023/05/26 01:05:54;;;;;;;25.92;4.28;;;12.10;98.80;;;;;;5050199;28;20021;-73
2023/05/26 01:08:20;;;;;;;32.60;5.60;;;12.00;99.00;;;;;;5049793;28;20079;-73
2023/05/26 01:10:46;;;;;;;38.20;5.40;;;12.10;99.10;;;;;;5049726;28;20029;-73
2023/05/26 01:13:15;;;;;;;35.55;5.80;;;12.00;98.80;;;;;;5050130;28;20025;-74
2023/05/26 01:15:56;;;;;;;26.77;5.47;;;12.10;98.80;;;;;;5049865;28;20025;-74
2023/05/26 01:18:30;;;;;;;31.23;5.32;;;12.00;98.90;;;;;;5049984;28;20028;-73
2023/05/26 01:21:01;;;;;;;28.10;4.90;;;11.90;99.00;;;;;;5050156;28;20289;-73
2023/05/26 01:23:47;;;;;;;21.75;4.60;;;11.90;99.20;;;;;;5049959;28;20037;-73
2023/05/26 01:26:18;;;;;;;30.42;4.93;;;11.90;99.20;;;;;;5049948;28;20037;-73
2023/05/26 01:28:44;;;;;;;35.53;5.88;;;11.80;99.20;;;;;;5049513;28;20144;-73
2023/05/26 01:31:11;;;;;;;37.53;5.63;;;11.90;99.00;;;;;;5049721;28;20036;-73
2023/05/26 01:33:37;;;;;;;41.92;6.38;;;11.90;99.10;;;;;;5049522;28;20733;-74
2023/05/26 01:36:03;;;;;;;28.15;5.47;;;12.00;99.00;;;;;;5039499;28;20061;-73
2023/05/26 01:38:29;;;;;;;26.85;4.47;;;11.90;99.00;;;;;;5029726;28;20096;-72
2023/05/26 01:41:28;;;;;;;29.50;5.78;;;11.90;99.10;;;;;;5029632;28;20069;-73
2023/05/26 01:44:14;;;;;;;27.05;4.75;;;11.90;99.10;;;;;;5023803;28;20371;-73
2023/05/26 01:46:51;;;;;;;30.05;5.55;;;11.80;99.20;;;;;;5029571;28;20030;-73
2023/05/26 01:49:20;;;;;;;36.80;5.05;;;11.80;99.30;;;;;;5028282;28;20566;-73
2023/05/26 01:51:55;;;;;;;33.22;6.43;;;11.80;99.40;;;;;;5029899;28;20455;-73
2023/05/26 01:54:22;;;;;;;35.30;6.07;;;11.70;99.50;;;;;;5032103;28;20103;-73
2023/05/26 01:56:51;;;;;;;29.20;5.05;;;11.80;99.40;;;;;;5032698;28;20026;-73
2023/05/26 01:59:19;;;;;;;41.78;5.13;;;11.70;99.40;;;;;;5033002;28;20618;-73
2023/05/26 02:01:46;;;;;;;32.60;5.20;;;11.70;99.50;;;;;;5032836;28;20210;-73
2023/05/26 02:04:12;;;;;;;30.48;5.72;;;11.60;99.70;;;;;;5032623;28;20459;-73
2023/05/26 02:06:38;;;;;;;31.13;4.82;;;11.70;99.40;;;;;;5032833;28;20473;-73
2023/05/26 02:09:05;;;;;;;31.35;5.20;;;11.70;99.40;;;;;;5033214;28;20459;-72
2023/05/26 02:11:32;;;;;;;31.02;4.78;;;11.70;99.50;;;;;;5033054;28;20363;-72
2023/05/26 02:13:58;;;;;;;28.52;5.32;;;11.60;99.60;;;;;;5032923;28;20038;-72
2023/05/26 02:16:24;;;;;;;32.10;5.28;;;11.70;99.40;;;;;;5032913;28;20038;-72
2023/05/26 02:18:50;;;;;;;39.53;6.60;;;11.60;99.50;;;;;;5032936;28;20037;-72
2023/05/26 02:21:16;;;;;;;33.40;5.63;;;11.60;99.70;;;;;;5033360;28;20068;-72
2023/05/26 02:23:45;;;;;;;30.55;5.53;;;11.60;99.60;;;;;;5032851;28;20030;-73
2023/05/26 02:26:11;;;;;;;34.55;5.88;;;11.60;99.70;;;;;;5033099;28;20091;-74
2023/05/26 02:28:40;;;;;;;39.95;5.80;;;11.60;99.70;;;;;;5032601;28;20045;-73
2023/05/26 02:31:06;;;;;;;32.70;5.95;;;11.70;99.40;;;;;;5031361;28;20027;-74
2023/05/26 02:33:32;;;;;;;44.72;6.10;;;11.60;99.60;;;;;;5032435;28;20029;-72
2023/05/26 02:35:58;;;;;;;36.35;6.13;;;11.50;99.80;;;;;;5032706;28;20052;-72
2023/05/26 02:38:23;;;;;;;28.13;5.07;;;11.40;99.70;;;;;;5032328;28;20037;-72
2023/05/26 02:40:49;;;;;;;44.25;5.85;;;11.40;99.90;;;;;;5032299;28;20038;-73
2023/05/26 02:43:16;;;;;;;36.85;6.13;;;11.40;99.90;;;;;;5032096;28;20129;-72
2023/05/26 02:45:41;;;;;;;35.72;5.85;;;11.40;99.80;;;;;;5032460;28;20029;-72
2023/05/26 02:48:07;;;;;;;33.60;6.05;;;11.40;99.90;;;;;;5032460;28;20037;-73
2023/05/26 02:50:33;;;;;;;33.35;6.50;;;11.40;99.90;;;;;;5031108;28;20055;-73
2023/05/26 02:52:58;;;;;;;31.90;5.03;;;11.20;99.90;;;;;;5032124;28;20025;-74
2023/05/26 02:55:24;;;;;;;36.75;5.68;;;11.20;99.90;;;;;;5032063;28;20029;-73
2023/05/26 02:57:51;;;;;;;32.80;5.43;;;11.30;99.90;;;;;;5031973;28;20037;-72
2023/05/26 03:00:17;;;;;;;26.23;5.72;;;11.30;99.90;;;;;;5032806;28;20033;-73
2023/05/26 03:02:44;;;;;;;28.27;5.65;;;11.30;99.90;;;;;;5031873;28;20335;-73
2023/05/26 03:05:09;;;;;;;32.28;4.85;;;11.40;99.90;;;;;;5031835;28;20116;-73
2023/05/26 03:07:35;;;;;;;28.27;4.60;;;11.40;99.80;;;;;;5031634;28;20061;-72
2023/05/26 03:10:01;;;;;;;36.42;5.38;;;11.30;99.90;;;;;;5031544;28;20044;-73
2023/05/26 03:12:27;;;;;;;31.42;5.82;;;11.30;99.90;;;;;;5031946;28;20036;-74
2023/05/26 03:14:54;;;;;;;31.48;6.15;;;11.20;99.90;;;;;;5032170;28;20113;-73
2023/05/26 03:17:19;;;;;;;31.33;5.78;;;11.20;99.90;;;;;;5030526;28;20030;-72
2023/05/26 03:19:45;;;;;;;36.58;5.05;;;11.20;99.90;;;;;;5031486;28;20034;-72
2023/05/26 03:22:11;;;;;;;33.10;5.55;;;11.20;99.90;;;;;;5030217;28;20026;-73
2023/05/26 03:24:37;;;;;;;35.92;5.07;;;11.30;99.90;;;;;;5031503;28;20037;-73
2023/05/26 03:27:03;;;;;;;29.50;5.60;;;11.40;99.90;;;;;;5031865;28;20348;-72
2023/05/26 03:29:30;;;;;;;32.65;6.22;;;11.30;99.80;;;;;;5031267;28;20042;-71
2023/05/26 03:31:57;;;;;;;33.58;7.13;;;11.30;99.90;;;;;;5031316;28;20034;-73
2023/05/26 03:34:25;;;;;;;27.65;4.88;;;11.40;99.70;;;;;;5031440;28;20033;-73
2023/05/26 03:36:53;;;;;;;30.08;5.35;;;11.40;99.60;;;;;;5031504;28;20042;-72
2023/05/26 03:39:19;;;;;;;43.47;5.97;;;11.40;99.60;;;;;;5031265;28;20035;-72
2023/05/26 03:41:45;;;;;;;24.40;5.03;;;11.40;99.50;;;;;;5031720;28;20263;-72
2023/05/26 03:44:11;;;;;;;35.30;5.18;;;11.40;99.30;;;;;;5031001;28;20119;-71
2023/05/26 03:46:36;;;;;;;27.92;5.05;;;11.40;99.30;;;;;;5030971;28;20033;-71
2023/05/26 03:49:02;;;;;;;26.20;4.95;;;11.40;99.40;;;;;;5030957;28;20045;-71
2023/05/26 03:51:28;;;;;;;20.13;4.78;;;11.50;99.50;;;;;;5030996;28;20033;-73
2023/05/26 03:53:54;;;;;;;32.88;5.65;;;11.30;99.60;;;;;;5031385;28;20105;-72
2023/05/26 03:56:20;;;;;;;29.30;4.95;;;11.30;99.90;;;;;;5030135;28;20455;-72
2023/05/26 03:58:45;;;;;;;33.72;5.60;;;11.20;99.80;;;;;;5031054;28;20420;-73
2023/05/26 04:01:11;;;;;;;39.72;5.43;;;11.10;99.80;;;;;;5031124;28;20033;-72
2023/05/26 04:03:37;;;;;;;32.03;5.25;;;11.10;99.90;;;;;;5030829;28;20032;-72
2023/05/26 04:06:03;;;;;;;29.98;5.70;;;11.20;99.70;;;;;;5031045;28;20026;-73
2023/05/26 04:08:28;;;;;;;32.65;5.78;;;11.10;99.70;;;;;;5030867;28;20065;-73
2023/05/26 04:10:55;;;;;;;32.25;5.32;;;11.10;99.60;;;;;;5029453;28;20371;-72
2023/05/26 04:13:20;;;;;;;40.75;6.25;;;11.20;99.50;;;;;;5029407;28;20463;-73
2023/05/26 04:15:46;;;;;;;40.83;6.03;;;11.30;99.60;;;;;;5030208;28;20041;-74
2023/05/26 04:18:12;;;;;;;31.80;6.68;;;11.30;99.40;;;;;;5030882;28;20051;-72
2023/05/26 04:20:38;;;;;;;38.60;5.82;;;11.20;99.40;;;;;;5030419;28;20068;-72
2023/05/26 04:23:04;;;;;;;39.95;5.75;;;11.20;99.60;;;;;;5030231;28;20107;-73
2023/05/26 04:25:30;;;;;;;29.65;5.20;;;11.20;99.50;;;;;;5030379;28;20044;-73
2023/05/26 04:27:58;;;;;;;40.28;6.45;;;11.10;99.60;;;;;;5029178;28;20120;-73
2023/05/26 04:30:24;;;;;;;39.40;5.40;;;11.20;99.60;;;;;;5030354;28;20052;-72
2023/05/26 04:32:50;;;;;;;36.65;5.85;;;11.20;99.60;;;;;;5029471;28;20127;-73
2023/05/26 04:35:17;;;;;;;27.92;5.70;;;11.30;99.30;;;;;;5029417;28;20040;-72
2023/05/26 04:37:43;;;;;;;39.67;5.43;;;11.20;99.40;;;;;;5030429;28;20127;-72
2023/05/26 04:40:09;;;;;;;30.15;5.85;;;11.30;99.30;;;;;;5030131;28;20476;-73
2023/05/26 04:42:38;;;;;;;33.65;5.57;;;11.30;99.30;;;;;;5030319;28;20065;-71
2023/05/26 04:45:05;;;;;;;28.10;5.55;;;11.40;99.10;;;;;;5030607;28;20017;-72
2023/05/26 04:47:34;;;;;;;38.20;5.72;;;11.30;99.00;;;;;;5030111;28;20045;-74
2023/05/26 04:50:01;;;;;;;42.08;6.70;;;11.50;98.90;;;;;;5030121;28;20091;-72
2023/05/26 04:52:28;;;;;;;26.85;5.10;;;11.50;98.90;;;;;;5030273;28;20037;-73
2023/05/26 04:54:54;;;;;;;46.80;7.60;;;11.50;98.70;;;;;;5030067;28;20486;-72
2023/05/26 04:57:20;;;;;;;36.55;6.63;;;11.60;98.70;;;;;;5028841;28;20029;-73
2023/05/26 04:59:46;;;;;;;30.00;5.43;;;11.50;98.80;;;;;;5029471;28;20022;-72
2023/05/26 05:02:12;;;;;;;30.48;5.43;;;11.50;98.60;;;;;;5030132;28;20530;-72
2023/05/26 05:04:41;;;;;;;41.63;6.50;;;11.60;98.50;;;;;;5030222;28;20057;-72
2023/05/26 05:07:08;;;;;;;27.77;5.68;;;11.60;98.40;;;;;;5030066;28;20393;-72
2023/05/26 05:09:33;;;;;;;25.15;4.57;;;11.60;98.40;;;;;;5029953;28;20132;-71
2023/05/26 05:12:00;;;;;;;31.85;6.05;;;11.70;98.40;;;;;;5030554;28;20044;-72
2023/05/26 05:14:26;;;;;;;44.55;7.30;;;11.70;98.30;;;;;;5030153;28;20048;-72
2023/05/26 05:16:51;;;;;;;33.13;5.50;;;11.70;98.00;;;;;;5028736;28;20132;-72
2023/05/26 05:19:17;;;;;;;24.30;4.32;;;11.70;97.80;;;;;;5029811;28;20044;-72
2023/05/26 05:21:43;;;;;;;28.00;5.00;;;11.80;97.70;;;;;;5029687;28;20029;-72
2023/05/26 05:24:08;;;;;;;23.33;4.93;;;11.80;97.40;;;;;;5030065;28;20036;-74
2023/05/26 05:26:34;;;;;;;22.70;4.63;;;11.80;97.40;;;;;;5030167;28;20087;-73
2023/05/26 05:29:00;;;;;;;29.13;5.50;;;11.80;97.40;;;;;;5033562;28;20490;-72
2023/05/26 05:31:25;;;;;;;26.80;6.10;;;11.80;97.30;;;;;;5033811;28;20099;-72
2023/05/26 05:33:51;;;;;;;34.10;5.88;;;12.00;97.30;;;;;;5033413;28;20029;-74
2023/05/26 05:36:17;;;;;;;28.25;5.25;;;12.00;97.10;;;;;;5033621;28;20040;-74
2023/05/26 05:38:42;;;;;;;29.25;4.90;;;12.00;97.00;;;;;;5064424;28;20044;-72
2023/05/26 05:41:09;;;;;;;26.35;4.88;;;12.20;96.90;;;;;;5073079;28;20082;-74
2023/05/26 05:43:35;;;;;;;32.30;7.45;;;12.30;96.90;;;;;;5062455;28;20095;-73
2023/05/26 05:46:00;;;;;;;35.20;5.82;;;12.40;96.60;;;;;;5053240;28;20098;-73
2023/05/26 05:48:26;;;;;;;29.95;5.50;;;12.40;96.40;;;;;;5053143;28;20017;-73
2023/05/26 05:50:52;;;;;;;25.20;4.82;;;12.40;96.50;;;;;;5052557;28;20021;-75
2023/05/26 05:53:17;;;;;;;29.38;4.70;;;12.40;96.60;;;;;;5053245;28;20025;-76
2023/05/26 05:55:46;;;;;;;35.67;5.85;;;12.50;96.30;;;;;;5053141;28;20029;-75
2023/05/26 05:58:12;;;;;;;38.72;5.57;;;12.50;96.30;;;;;;5053204;28;20048;-75
2023/05/26 06:00:37;;;;;;;29.27;5.53;;;12.60;96.40;;;;;;5052455;28;20037;-76
2023/05/26 06:03:03;;;;;;;37.47;6.03;;;12.70;96.20;;;;;;5053358;28;20051;-76
2023/05/26 06:05:29;;;;;;;30.48;4.97;;;12.80;95.90;;;;;;5049105;28;20169;-78
2023/05/26 06:07:54;;;;;;;26.65;4.88;;;12.90;95.80;;;;;;5053899;28;20064;-73
2023/05/26 06:10:20;;;;;;;24.23;5.10;;;12.90;95.70;;;;;;5053597;28;20068;-76
2023/05/26 06:12:46;;;;;;;32.17;5.82;;;12.90;95.40;;;;;;5052717;28;20098;-77
2023/05/26 06:15:12;;;;;;;27.27;5.15;;;13.00;95.40;;;;;;5054347;28;20406;-77
2023/05/26 06:17:38;;;;;;;31.25;5.20;;;13.00;95.30;;;;;;5053796;28;20098;-77
2023/05/26 06:20:04;;;;;;;25.77;5.43;;;13.10;95.20;;;;;;5053655;28;20032;-76
2023/05/26 06:22:30;;;;;;;27.65;4.15;;;13.10;95.20;;;;;;5052807;28;20029;-77
2023/05/26 06:24:55;;;;;;;32.53;5.75;;;13.10;95.10;;;;;;5053428;28;20123;-75
2023/05/26 06:27:21;;;;;;;31.95;4.75;;;13.20;94.90;;;;;;5053195;28;20075;-76
2023/05/26 06:29:47;;;;;;;31.52;4.97;;;13.10;94.80;;;;;;5053003;28;20328;-78
2023/05/26 06:32:12;;;;;;;28.17;5.10;;;13.20;94.90;;;;;;5052272;28;20030;-78
2023/05/26 06:34:38;;;;;;;37.65;5.70;;;13.30;94.70;;;;;;5052864;28;20032;-75
2023/05/26 06:37:04;;;;;;;28.20;4.78;;;13.50;94.60;;;;;;5053255;28;20056;-73
2023/05/26 06:39:30;;;;;;;24.48;4.10;;;13.50;94.40;;;;;;5052887;28;20025;-75
2023/05/26 06:41:56;;;;;;;25.70;5.28;;;13.50;94.30;;;;;;5053836;28;20024;-72
2023/05/26 06:44:23;;;;;;;34.65;5.18;;;13.40;94.30;;;;;;5053291;28;20033;-73
2023/05/26 06:46:49;;;;;;;26.92;4.40;;;13.40;94.40;;;;;;5052297;28;20037;-74
2023/05/26 06:49:14;;;;;;;30.38;5.25;;;13.50;94.40;;;;;;5051681;28;20478;-72
2023/05/26 06:51:40;;;;;;;31.27;4.75;;;13.60;94.30;;;;;;5052943;28;20094;-73
2023/05/26 06:54:06;;;;;;;30.50;5.10;;;13.60;94.10;;;;;;5053174;28;20021;-74
2023/05/26 06:56:32;;;;;;;26.35;4.80;;;13.50;94.00;;;;;;5052802;28;20029;-73
2023/05/26 06:58:57;;;;;;;22.83;4.22;;;13.50;94.10;;;;;;5051395;28;20336;-71
2023/05/26 07:01:23;;;;;;;23.52;4.80;;;13.60;94.00;;;;;;5052856;28;20067;-74
2023/05/26 07:03:49;;;;;;;31.08;4.40;;;13.80;94.50;;;;;;5052209;28;20090;-73
2023/05/26 07:06:15;;;;;;;29.15;5.68;;;14.10;93.90;;;;;;5053188;28;20096;-71
2023/05/26 07:08:40;;;;;;;28.58;4.80;;;14.10;93.60;;;;;;5052577;28;20029;-75
2023/05/26 07:11:06;;;;;;;27.58;5.30;;;14.20;93.50;;;;;;5051616;28;20108;-73
2023/05/26 07:13:32;;;;;;;26.58;4.55;;;14.20;93.00;;;;;;5051544;28;20036;-73
2023/05/26 07:15:58;;;;;;;34.78;4.57;;;14.30;93.00;;;;;;5051531;28;20079;-73
2023/05/26 07:18:23;;;;;;;29.67;4.38;;;14.30;93.20;;;;;;5051295;28;20090;-73
2023/05/26 07:20:49;;;;;;;34.67;6.30;;;14.50;93.20;;;;;;5052903;28;20434;-71
2023/05/26 07:23:15;;;;;;;28.85;5.40;;;14.60;92.70;;;;;;5052166;28;20040;-73
2023/05/26 07:25:41;;;;;;;22.55;4.75;;;14.70;92.80;;;;;;5052387;28;20037;-72
2023/05/26 07:28:06;;;;;;;21.48;4.30;;;14.70;92.30;;;;;;5052187;28;20037;-74
2023/05/26 07:30:32;;;;;;;28.92;4.90;;;14.50;92.40;;;;;;5052302;28;20047;-73
2023/05/26 07:32:58;;;;;;;25.90;4.60;;;14.50;92.60;;;;;;5052952;28;20453;-73
2023/05/26 07:35:23;;;;;;;32.10;4.72;;;14.40;92.30;;;;;;5052260;28;20033;-73
2023/05/26 07:37:49;;;;;;;25.83;4.35;;;14.50;92.10;;;;;;5052149;28;20467;-71
2023/05/26 07:40:15;;;;;;;24.48;5.28;;;14.50;92.50;;;;;;5052075;28;20459;-73
2023/05/26 07:42:42;;;;;;;29.38;5.10;;;14.70;92.20;;;;;;5052165;28;20043;-74
2023/05/26 07:45:08;;;;;;;23.73;4.60;;;15.00;92.50;;;;;;5052470;28;20327;-73
2023/05/26 07:47:34;;;;;;;22.67;4.82;;;15.00;92.00;;;;;;5051642;28;20435;-76
2023/05/26 07:50:00;;;;;;;19.83;4.35;;;15.20;92.00;;;;;;5051065;28;20091;-77
2023/05/26 07:52:26;;;;;;;24.80;4.35;;;15.50;91.80;;;;;;5051883;28;20029;-74
2023/05/26 07:54:52;;;;;;;31.30;4.75;;;15.60;91.00;;;;;;5051905;28;20471;-73
2023/05/26 07:57:18;;;;;;;33.42;5.90;;;15.70;91.00;;;;;;5051804;28;20036;-71
2023/05/26 07:59:44;;;;;;;27.67;4.90;;;15.80;90.80;;;;;;5052406;28;20024;-73
2023/05/26 08:02:10;;;;;;;24.50;4.85;;;15.90;90.60;;;;;;5051693;28;20021;-74
2023/05/26 08:04:37;;;;;;;24.40;4.93;;;16.00;90.30;;;;;;5050170;28;20136;-72
2023/05/26 08:07:03;;;;;;;23.30;4.15;;;16.10;90.50;;;;;;5050524;28;20116;-72
2023/05/26 08:09:29;;;;;;;28.17;4.88;;;16.10;90.30;;;;;;5051609;28;20545;-72
2023/05/26 08:11:54;;;;;;;26.95;4.53;;;16.40;90.60;;;;;;5052077;28;20199;-71
2023/05/26 08:14:22;;;;;;;22.08;4.90;;;16.60;90.00;;;;;;5051345;28;20049;-71
2023/05/26 08:16:48;;;;;;;23.30;4.75;;;17.00;90.90;;;;;;5050491;28;20490;-71
2023/05/26 08:19:14;;;;;;;17.98;4.82;;;17.70;89.60;;;;;;5051119;28;20037;-72
2023/05/26 08:21:39;;;;;;;27.13;5.05;;;18.00;85.80;;;;;;5051558;28;20025;-74
2023/05/26 08:24:05;;;;;;;28.48;4.75;;;18.80;87.10;;;;;;5050740;28;20120;-74
2023/05/26 08:26:31;;;;;;;22.33;4.22;;;19.40;82.80;;;;;;5051289;28;20029;-75
2023/05/26 08:28:57;;;;;;;20.90;4.88;;;20.00;84.80;;;;;;5051174;28;20459;-72
2023/05/26 08:31:23;;;;;;;24.05;4.30;;;21.20;81.10;;;;;;5050074;28;20109;-73
2023/05/26 08:33:48;;;;;;;18.92;4.22;;;22.20;78.50;;;;;;5050946;28;20025;-74
2023/05/26 08:36:14;;;;;;;27.58;7.18;;;22.70;75.80;;;;;;5050574;28;20408;-73
2023/05/26 08:38:40;;;;;;;25.05;7.35;;;23.40;73.20;;;;;;5051238;28;20076;-72
2023/05/26 08:41:07;;;;;;;18.08;4.47;;;24.00;71.10;;;;;;5051108;28;20048;-73
2023/05/26 08:43:48;;;;;;;17.27;4.40;;;24.40;71.40;;;;;;5051253;28;20037;-75
2023/05/26 08:46:15;;;;;;;19.55;4.82;;;24.90;69.70;;;;;;5051136;28;20037;-73
2023/05/26 08:48:41;;;;;;;17.63;4.70;;;25.20;68.30;;;;;;5050874;28;20040;-73
2023/05/26 08:51:08;;;;;;;26.00;5.22;;;25.90;66.50;;;;;;5051435;28;20040;-73
2023/05/26 08:53:35;;;;;;;22.13;4.38;;;26.40;62.30;;;;;;5051099;28;20040;-75
2023/05/26 08:56:02;;;;;;;18.75;4.70;;;26.10;63.20;;;;;;5050750;28;20111;-73
2023/05/26 08:58:31;;;;;;;34.05;10.13;;;26.70;61.40;;;;;;5050817;28;20047;-73
2023/05/26 09:00:57;;;;;;;21.60;4.63;;;26.20;59.80;;;;;;5051546;28;20533;-72
2023/05/26 09:03:23;;;;;;;23.55;4.70;;;27.00;59.90;;;;;;5053811;28;20148;-72
2023/05/26 09:05:49;;;;;;;22.90;5.15;;;27.70;59.00;;;;;;5055388;28;20092;-71
2023/05/26 09:08:15;;;;;;;28.65;5.75;;;27.90;57.00;;;;;;5054645;28;20040;-72
2023/05/26 09:10:41;;;;;;;28.45;7.75;;;27.70;56.20;;;;;;5054800;28;20029;-72
2023/05/26 09:13:12;;;;;;;17.67;4.70;;;27.70;56.20;;;;;;5054815;28;20029;-72
2023/05/26 09:15:39;;;;;;;19.42;5.30;;;27.70;55.50;;;;;;5055034;28;20111;-72
2023/05/26 09:18:09;;;;;;;23.80;4.97;;;25.50;55.60;;;;;;5055232;28;20115;-71
2023/05/26 09:20:42;;;;;;;22.88;4.90;;;24.60;56.80;;;;;;5054752;28;20043;-73
2023/05/26 09:23:08;;;;;;;16.02;4.47;;;25.30;57.90;;;;;;5054448;28;20032;-71
2023/05/26 09:25:42;;;;;;;18.63;4.38;;;26.40;56.20;;;;;;5054708;28;20029;-72
2023/05/26 09:28:10;;;;;;;23.15;4.55;;;26.30;54.60;;;;;;5054451;28;20059;-73
2023/05/26 09:30:36;;;;;;;;;;;25.80;54.50;;;;;;5054744;28;20036;-72
2023/05/26 09:33:04;;;;;;;15.38;3.97;;;25.40;55.20;;;;;;5039095;28;19948;-72
2023/05/26 09:35:38;;;;;;;21.70;4.32;;;25.20;55.00;;;;;;5034623;28;20034;-71
2023/05/26 09:38:09;;;;;;;29.38;5.20;;;25.10;56.00;;;;;;5034529;28;20030;-73
2023/05/26 09:40:39;;;;;;;16.48;4.38;;;24.90;55.20;;;;;;5034368;28;20072;-72
2023/05/26 09:43:05;;;;;;;16.77;4.05;;;23.90;55.40;;;;;;5034299;28;20034;-71
2023/05/26 09:45:35;;;;;;;17.52;3.65;;;23.70;55.90;;;;;;5034319;28;20281;-74
2023/05/26 09:48:03;;;;;;;16.38;3.47;;;23.20;54.50;;;;;;5034463;28;20022;-72
2023/05/26 09:50:36;;;;;;;20.20;4.45;;;22.40;55.00;;;;;;5034574;28;20120;-74
2023/05/26 09:53:03;;;;;;;21.17;3.85;;;22.20;55.90;;;;;;5034227;28;20057;-74
2023/05/26 09:55:33;;;;;;;14.60;3.63;;;22.70;57.20;;;;;;5034043;28;20163;-72
2023/05/26 09:58:12;;;;;;;18.02;4.32;;;22.60;56.40;;;;;;5034130;28;20036;-73
2023/05/26 10:00:42;;;;;;;16.95;3.95;;;22.20;55.90;;;;;;5033998;28;20042;-72
2023/05/26 10:03:10;;;;;;;19.83;4.57;;;21.50;56.60;;;;;;5033857;28;20052;-73
2023/05/26 10:05:45;;;;;;;19.42;3.85;;;21.60;57.70;;;;;;5033028;28;20025;-75
2023/05/26 10:08:12;;;;;;;24.48;4.57;;;22.00;57.50;;;;;;5032958;28;20030;-73
2023/05/26 10:10:39;;;;;;;15.27;4.00;;;22.00;56.60;;;;;;5032961;28;20158;-72
2023/05/26 10:13:07;;;;;;;24.17;5.97;;;21.70;56.90;;;;;;5032103;28;20107;-73
2023/05/26 10:15:32;;;;;;;;;;;20.80;57.10;;;;;;5033188;28;20040;-73
2023/05/26 10:18:00;;;;;;;22.73;3.85;;;21.20;58.10;;;;;;5031760;28;19905;-73
2023/05/26 10:20:26;;;;;;;19.15;4.30;;;21.40;58.00;;;;;;5031430;28;20081;-73
2023/05/26 10:23:10;;;;;;;28.17;9.27;;;20.90;56.90;;;;;;5032575;28;20463;-74
2023/05/26 10:25:38;;;;;;;10.65;3.45;;;21.30;58.30;;;;;;5032407;28;20492;-72
2023/05/26 10:28:18;;;;;;;14.13;3.47;;;21.50;57.10;;;;;;5030982;28;20033;-72
2023/05/26 10:30:44;;;;;;;22.15;3.90;;;21.60;55.90;;;;;;5033078;28;20529;-73
2023/05/26 10:33:10;;;;;;;16.48;3.70;;;21.70;56.20;;;;;;5032904;28;20025;-73
2023/05/26 10:35:37;;;;;;;14.60;3.97;;;21.50;56.70;;;;;;5032201;28;20064;-72
2023/05/26 10:38:02;;;;;;;22.52;4.50;;;21.50;57.10;;;;;;5032205;28;20029;-73
2023/05/26 10:40:42;;;;;;;18.77;3.60;;;21.30;56.60;;;;;;5032321;28;20116;-72
2023/05/26 10:43:24;;;;;;;19.13;4.65;;;21.10;57.70;;;;;;5031132;28;20043;-75
2023/05/26 10:46:03;;;;;;;16.75;3.17;;;21.10;58.50;;;;;;5032252;28;20479;-73
2023/05/26 10:48:40;;;;;;;14.82;3.78;;;21.50;58.00;;;;;;5032145;28;20380;-76
2023/05/26 10:51:16;;;;;;;18.45;3.60;;;21.50;58.10;;;;;;5032263;28;20041;-76
2023/05/26 10:53:44;;;;;;;16.20;3.97;;;21.40;58.10;;;;;;5032047;28;20041;-73
2023/05/26 10:56:12;;;;;;;12.70;3.60;;;21.50;59.70;;;;;;5031913;28;20049;-73
2023/05/26 10:58:48;;;;;;;18.92;3.28;;;21.30;59.30;;;;;;5032436;28;20029;-74
2023/05/26 11:01:36;;;;;;;12.38;3.13;;;21.60;61.90;;;;;;5032129;28;20397;-74
2023/05/26 11:04:04;;;;;;;18.00;3.40;;;21.60;58.80;;;;;;5031473;28;20038;-74
2023/05/26 11:06:51;;;;;;;17.73;3.28;;;21.60;58.20;;;;;;5031675;28;20455;-73
2023/05/26 11:09:22;;;;;;;16.85;5.07;;;21.50;57.40;;;;;;5032416;28;20516;-73
2023/05/26 11:11:52;;;;;;;19.27;3.00;;;21.40;58.70;;;;;;5030919;28;20076;-71
2023/05/26 11:14:25;;;;;;;14.75;3.25;;;21.70;57.90;;;;;;5031706;28;20088;-72
2023/05/26 11:16:56;;;;;;;16.42;4.72;;;21.70;58.20;;;;;;5031431;28;20037;-74
2023/05/26 11:19:32;;;;;;;13.30;4.10;;;21.80;57.50;;;;;;5030336;28;20099;-78
2023/05/26 11:22:00;;;;;;;14.82;3.80;;;21.80;56.90;;;;;;5031325;28;20136;-73
2023/05/26 11:24:26;;;;;;;22.92;4.00;;;21.80;57.50;;;;;;5030350;28;20351;-72
2023/05/26 11:26:51;;;;;;;10.93;3.95;;;21.80;58.10;;;;;;5031544;28;20021;-72
2023/05/26 11:29:23;;;;;;;14.82;3.55;;;21.60;58.10;;;;;;5031347;28;20041;-72
2023/05/26 11:31:50;;;;;;;12.82;3.22;;;21.60;59.50;;;;;;5031243;28;20034;-72
2023/05/26 11:34:16;;;;;;;13.33;3.20;;;21.00;58.40;;;;;;5030140;28;20136;-72
2023/05/26 11:36:46;;;;;;;21.00;4.60;;;21.10;58.70;;;;;;5031220;28;20025;-72
2023/05/26 11:39:12;;;;;;;16.02;3.35;;;21.40;59.30;;;;;;5031498;28;20419;-73
2023/05/26 11:41:39;;;;;;;17.63;3.78;;;21.50;59.20;;;;;;5031130;28;20072;-71
2023/05/26 11:44:09;;;;;;;22.95;4.65;;;21.50;58.20;;;;;;5030909;28;20117;-72
2023/05/26 11:46:39;;;;;;;14.43;3.03;;;21.50;59.00;;;;;;5031065;28;20100;-72
2023/05/26 11:49:14;;;;;;;15.13;3.35;;;21.60;59.30;;;;;;5030861;28;20068;-72
2023/05/26 11:51:47;;;;;;;13.27;3.20;;;21.60;59.20;;;;;;5031092;28;20033;-72
2023/05/26 11:54:14;;;;;;;16.52;3.83;;;21.70;59.40;;;;;;5031295;28;20029;-73
2023/05/26 11:56:39;;;;;;;15.30;3.63;;;21.70;57.70;;;;;;5030898;28;20472;-72
2023/05/26 11:59:05;;;;;;;14.82;3.25;;;21.60;59.60;;;;;;5030956;28;20045;-76
2023/05/26 12:01:32;;;;;;;19.80;3.85;;;21.80;59.00;;;;;;5030798;28;20033;-76
2023/05/26 12:04:02;;;;;;;11.55;3.78;;;21.80;58.20;;;;;;5030910;28;20041;-77
2023/05/26 12:06:29;;;;;;;22.73;4.93;;;21.80;57.70;;;;;;5029440;28;20025;-73
2023/05/26 12:08:59;;;;;;;18.10;3.97;;;21.80;57.00;;;;;;5050071;28;20048;-73
2023/05/26 12:11:38;;;;;;;19.20;4.20;;;21.60;56.60;;;;;;5051605;28;20085;-73
2023/05/26 12:14:14;;;;;;;11.88;4.10;;;21.40;56.80;;;;;;5051820;28;20029;-74
2023/05/26 12:16:46;;;;;;;26.98;9.68;;;21.50;56.80;;;;;;5050419;28;20056;-73
2023/05/26 12:19:13;;;;;;;16.50;4.57;;;21.50;56.90;;;;;;5051433;28;20033;-74
2023/05/26 12:21:45;;;;;;;10.20;3.08;;;21.60;56.30;;;;;;5051052;28;20032;-74
2023/05/26 12:24:11;;;;;;;17.90;3.60;;;21.40;55.30;;;;;;5051548;28;20048;-81
2023/05/26 12:26:37;;;;;;;13.35;2.72;;;21.20;56.00;;;;;;5051225;28;20021;-76
2023/05/26 12:29:18;;;;;;;14.85;3.22;;;21.30;56.30;;;;;;5050998;28;20505;-73
2023/05/26 12:31:46;;;;;;;14.63;3.10;;;21.50;56.60;;;;;;5051124;28;20455;-73
2023/05/26 12:34:17;;;;;;;14.63;2.53;;;21.70;56.30;;;;;;5051283;28;20456;-76
2023/05/26 12:36:44;;;;;;;15.65;3.38;;;21.50;55.50;;;;;;5049498;28;20289;-72
2023/05/26 12:39:10;;;;;;;16.58;2.83;;;21.30;55.00;;;;;;5051614;28;20036;-74